Time;durP1;ratioP1;P1;durP2;ratioP2;P2;SDS_P1;SDS_P2;PMS_P1;PMS_P2;Temp;Humidity;BMP_temperature;BMP_pressure;BME280_temperature;BME280_humidity;BME280_pressure;Samples;Min_cycle;Max_cycle;Signal;HPM_P1;HPM_P2
2022/08/04 00:00:10;;;;;;;6.25;2.58;;;25.40;62.90;;;;;;5023166;28;20044;-63
2022/08/04 00:03:08;;;;;;;5.82;2.45;;;25.30;62.90;;;;;;5012496;28;20037;-63
2022/08/04 00:05:42;;;;;;;6.30;2.60;;;25.30;62.90;;;;;;5006830;28;20022;-63
2022/08/04 00:08:44;;;;;;;5.65;2.63;;;25.30;63.00;;;;;;5026297;28;20366;-63
2022/08/04 00:11:15;;;;;;;5.38;2.33;;;25.30;63.10;;;;;;5015593;28;20085;-63
2022/08/04 00:13:46;;;;;;;6.18;2.90;;;25.20;63.20;;;;;;5022248;28;20029;-63
2022/08/04 00:16:13;;;;;;;5.75;3.00;;;25.20;63.20;;;;;;5016647;28;20034;-63
2022/08/04 00:18:44;;;;;;;7.05;3.00;;;25.20;63.20;;;;;;5007771;28;20030;-63
2022/08/04 00:21:14;;;;;;;7.53;2.88;;;25.20;63.30;;;;;;5006071;28;20035;-63
2022/08/04 00:23:43;;;;;;;7.00;2.80;;;25.20;63.40;;;;;;5019672;28;20025;-63
2022/08/04 00:26:09;;;;;;;5.10;2.60;;;25.10;63.50;;;;;;5018748;28;20450;-63
2022/08/04 00:28:37;;;;;;;6.53;3.13;;;25.10;63.60;;;;;;5019163;28;20104;-63
2022/08/04 00:31:04;;;;;;;8.23;2.97;;;25.10;63.80;;;;;;5015820;28;20039;-63
2022/08/04 00:33:30;;;;;;;8.07;3.13;;;25.10;63.90;;;;;;5009459;28;20065;-63
2022/08/04 00:35:58;;;;;;;9.35;3.10;;;25.10;63.90;;;;;;5020375;28;20405;-63
2022/08/04 00:38:24;;;;;;;7.20;2.78;;;25.00;63.90;;;;;;5014660;28;20061;-63
2022/08/04 00:41:05;;;;;;;8.85;3.30;;;25.00;64.00;;;;;;5017009;28;20432;-63
2022/08/04 00:43:38;;;;;;;8.13;2.90;;;25.00;64.10;;;;;;5009112;28;20018;-63
2022/08/04 00:46:15;;;;;;;7.05;2.55;;;24.90;64.00;;;;;;5028367;28;20124;-63
2022/08/04 00:48:55;;;;;;;7.75;3.13;;;24.90;64.10;;;;;;5020011;28;20091;-63
2022/08/04 00:51:36;;;;;;;7.50;2.88;;;24.90;64.20;;;;;;5013973;28;20041;-63
2022/08/04 00:54:07;;;;;;;6.22;2.88;;;24.90;64.30;;;;;;5017101;28;20063;-63
2022/08/04 00:57:17;;;;;;;8.18;3.35;;;24.90;64.30;;;;;;5027280;28;20036;-63
2022/08/04 01:00:09;;;;;;;6.28;2.90;;;24.90;64.30;;;;;;4983937;28;20134;-63
2022/08/04 01:02:59;;;;;;;8.38;2.42;;;24.80;64.40;;;;;;5005524;28;20050;-63
2022/08/04 01:06:03;;;;;;;5.93;2.63;;;24.80;64.60;;;;;;4991312;28;20030;-63
2022/08/04 01:08:40;;;;;;;5.70;2.70;;;24.70;64.60;;;;;;4983950;28;20080;-63
2022/08/04 01:11:25;;;;;;;7.32;3.05;;;24.70;64.80;;;;;;4994114;28;20104;-63
2022/08/04 01:14:20;;;;;;;6.20;3.30;;;24.70;64.80;;;;;;4995860;28;20474;-63
2022/08/04 01:16:52;;;;;;;4.75;2.40;;;24.60;64.90;;;;;;4996868;28;20053;-63
2022/08/04 01:19:51;;;;;;;8.10;2.70;;;24.60;64.90;;;;;;4991568;28;20034;-63
2022/08/04 01:22:18;;;;;;;6.88;3.17;;;24.60;64.90;;;;;;4998281;28;20133;-63
2022/08/04 01:25:08;;;;;;;8.32;3.00;;;24.50;65.00;;;;;;4991976;28;20037;-63
2022/08/04 01:27:57;;;;;;;5.13;2.65;;;24.50;65.00;;;;;;5001062;28;20038;-63
2022/08/04 01:30:26;;;;;;;8.27;3.42;;;24.50;65.10;;;;;;4988268;28;20039;-63
2022/08/04 01:32:59;;;;;;;8.05;3.40;;;24.50;65.10;;;;;;4993571;28;20045;-63
2022/08/04 01:35:37;;;;;;;8.38;3.10;;;24.50;65.10;;;;;;5007083;28;20059;-63
2022/08/04 01:38:23;;;;;;;7.95;3.33;;;24.50;65.10;;;;;;5014859;28;20037;-63
2022/08/04 01:40:56;;;;;;;7.82;3.30;;;24.50;65.10;;;;;;5012832;28;20033;-63
2022/08/04 01:43:23;;;;;;;6.45;3.10;;;24.50;65.10;;;;;;5018306;28;20021;-63
2022/08/04 01:45:55;;;;;;;6.18;2.92;;;24.50;65.00;;;;;;5018541;28;20238;-62
2022/08/04 01:48:26;;;;;;;9.13;3.08;;;24.50;65.00;;;;;;5016644;28;20033;-63
2022/08/04 01:50:53;;;;;;;18.77;3.90;;;24.50;64.90;;;;;;5023664;28;20025;-63
2022/08/04 01:53:20;;;;;;;8.90;3.63;;;24.50;64.70;;;;;;5033164;28;20484;-63
2022/08/04 01:55:51;;;;;;;7.50;3.20;;;24.50;64.60;;;;;;5010751;28;20030;-63
2022/08/04 01:58:22;;;;;;;7.82;3.25;;;24.50;64.40;;;;;;5029640;28;20137;-63
2022/08/04 02:01:01;;;;;;;;;;;24.60;64.50;;;;;;5010769;28;20038;-63
2022/08/04 02:03:27;;;;;;;7.45;3.08;;;24.60;64.40;;;;;;5017071;28;20402;-63
2022/08/04 02:06:10;;;;;;;5.38;2.70;;;24.50;64.30;;;;;;5017634;28;20026;-63
2022/08/04 02:08:50;;;;;;;6.90;2.70;;;24.50;64.30;;;;;;5006302;28;20030;-63
2022/08/04 02:11:20;;;;;;;6.82;3.03;;;24.50;64.30;;;;;;5017938;28;20132;-63
2022/08/04 02:13:51;;;;;;;7.65;2.83;;;24.50;64.30;;;;;;5019599;28;20041;-63
2022/08/04 02:16:49;;;;;;;7.60;2.85;;;24.50;64.30;;;;;;5015658;28;20335;-63
2022/08/04 02:19:31;;;;;;;8.18;3.55;;;24.50;64.40;;;;;;5022862;28;20426;-63
2022/08/04 02:22:06;;;;;;;8.23;3.28;;;24.50;64.50;;;;;;5019439;28;20017;-63
2022/08/04 02:24:39;;;;;;;6.90;3.33;;;24.50;64.50;;;;;;5025986;28;20022;-63
2022/08/04 02:27:06;;;;;;;7.38;2.70;;;24.40;64.50;;;;;;5020282;28;20390;-63
2022/08/04 02:29:55;;;;;;;8.10;3.20;;;24.40;64.40;;;;;;5015683;28;20025;-65
2022/08/04 02:32:26;;;;;;;6.65;2.83;;;24.50;64.40;;;;;;5018978;28;20350;-63
2022/08/04 02:34:57;;;;;;;8.27;2.95;;;24.40;64.50;;;;;;5027055;28;20117;-63
2022/08/04 02:37:25;;;;;;;7.75;3.15;;;24.40;64.60;;;;;;5030420;28;20037;-63
2022/08/04 02:39:53;;;;;;;7.55;2.90;;;24.40;64.50;;;;;;5026609;28;20045;-63
2022/08/04 02:42:19;;;;;;;7.38;3.08;;;24.40;64.60;;;;;;5021938;28;20105;-63
2022/08/04 02:44:50;;;;;;;7.50;3.53;;;24.40;64.70;;;;;;5025918;28;20108;-64
2022/08/04 02:47:21;;;;;;;6.30;3.25;;;24.40;64.70;;;;;;5027413;28;20027;-63
2022/08/04 02:49:49;;;;;;;6.97;3.08;;;24.30;64.60;;;;;;5026939;28;20057;-63
2022/08/04 02:52:17;;;;;;;7.47;3.38;;;24.30;64.70;;;;;;5028528;28;20034;-64
2022/08/04 02:54:44;;;;;;;10.77;3.03;;;24.30;64.70;;;;;;5021811;28;20040;-64
2022/08/04 02:57:16;;;;;;;8.60;3.35;;;24.30;64.70;;;;;;5022571;28;20335;-64
2022/08/04 02:59:59;;;;;;;7.07;2.80;;;24.30;64.70;;;;;;5027583;28;20487;-63
2022/08/04 03:02:37;;;;;;;8.13;3.17;;;24.30;64.60;;;;;;5017815;28;20074;-63
2022/08/04 03:05:11;;;;;;;6.65;2.95;;;24.30;64.50;;;;;;5026464;28;20355;-63
2022/08/04 03:07:40;;;;;;;6.28;2.90;;;24.30;64.60;;;;;;5029271;28;20032;-63
2022/08/04 03:10:44;;;;;;;7.43;3.35;;;24.20;64.50;;;;;;5004436;28;20033;-63
2022/08/04 03:13:18;;;;;;;6.07;3.05;;;24.20;64.50;;;;;;5022952;28;20033;-63
2022/08/04 03:15:56;;;;;;;9.35;3.28;;;24.20;64.60;;;;;;5020465;28;20121;-63
2022/08/04 03:18:37;;;;;;;8.15;3.10;;;24.20;64.60;;;;;;5028621;28;20021;-64
2022/08/04 03:21:29;;;;;;;7.85;2.92;;;24.20;64.60;;;;;;5016985;28;20030;-63
2022/08/04 03:24:22;;;;;;;8.15;3.03;;;24.20;64.60;;;;;;5009802;28;20049;-63
2022/08/04 03:27:00;;;;;;;7.97;2.90;;;24.20;64.60;;;;;;5013608;28;20030;-63
2022/08/04 03:29:44;;;;;;;6.55;3.50;;;24.10;64.70;;;;;;5017021;28;20038;-63
2022/08/04 03:32:22;;;;;;;5.78;2.95;;;24.10;64.60;;;;;;5015815;28;20061;-63
2022/08/04 03:35:09;;;;;;;8.23;3.45;;;24.10;64.80;;;;;;5017349;28;20375;-63
2022/08/04 03:37:55;;;;;;;8.13;3.17;;;24.10;64.90;;;;;;5015883;28;20038;-64
2022/08/04 03:40:33;;;;;;;6.95;3.20;;;24.10;65.00;;;;;;5008910;28;20038;-64
2022/08/04 03:43:23;;;;;;;9.93;3.28;;;24.00;65.00;;;;;;5010107;28;20458;-63
2022/08/04 03:46:25;;;;;;;6.47;3.03;;;24.00;65.00;;;;;;4999633;28;20044;-63
2022/08/04 03:49:09;;;;;;;6.75;2.88;;;24.00;65.00;;;;;;5020182;28;20025;-63
2022/08/04 03:54:43;;;;;;;7.07;2.92;;;23.90;65.20;;;;;;5022570;28;20100;-63
2022/08/04 03:57:39;;;;;;;10.88;3.15;;;23.90;65.20;;;;;;5029754;28;20056;-63
2022/08/04 04:00:07;;;;;;;7.30;2.72;;;23.90;65.30;;;;;;5032154;28;20033;-63
2022/08/04 04:03:05;;;;;;;6.22;3.10;;;23.90;65.30;;;;;;5000849;28;20026;-63
2022/08/04 04:05:57;;;;;;;11.90;2.90;;;23.90;65.40;;;;;;5022321;28;20030;-63
2022/08/04 04:08:54;;;;;;;7.40;2.85;;;23.90;65.40;;;;;;5019260;28;20033;-63
2022/08/04 04:11:38;;;;;;;10.13;2.95;;;23.90;65.40;;;;;;5003490;28;20111;-63
2022/08/04 04:14:22;;;;;;;7.57;3.10;;;23.90;65.40;;;;;;5003773;28;20030;-63
2022/08/04 04:17:08;;;;;;;5.53;2.70;;;23.80;65.50;;;;;;5022770;28;20057;-64
2022/08/04 04:20:07;;;;;;;7.95;2.63;;;23.80;65.50;;;;;;5030725;28;20128;-64
2022/08/04 04:22:42;;;;;;;6.57;2.80;;;23.80;65.70;;;;;;5030862;28;20113;-62
2022/08/04 04:25:41;;;;;;;7.53;2.97;;;23.80;65.80;;;;;;5013210;28;20128;-63
2022/08/04 04:28:24;;;;;;;7.47;3.15;;;23.80;65.70;;;;;;5003016;28;20034;-63
2022/08/04 04:30:53;;;;;;;8.98;2.72;;;23.80;65.90;;;;;;5029860;28;20407;-63
2022/08/04 04:33:42;;;;;;;6.90;3.00;;;23.70;65.90;;;;;;5012965;28;20042;-63
2022/08/04 04:36:21;;;;;;;11.75;2.70;;;23.70;66.00;;;;;;5021976;28;20112;-63
2022/08/04 04:39:17;;;;;;;7.30;2.63;;;23.70;66.00;;;;;;5008364;28;20403;-63
2022/08/04 04:42:02;;;;;;;7.25;2.95;;;23.70;65.90;;;;;;5017425;28;20036;-63
2022/08/04 04:44:39;;;;;;;7.55;2.97;;;23.80;65.90;;;;;;5017775;28;20155;-63
2022/08/04 04:47:30;;;;;;;7.40;2.78;;;23.80;66.00;;;;;;5014163;28;20037;-63
2022/08/04 04:50:09;;;;;;;8.27;3.00;;;23.80;66.00;;;;;;5018036;28;20062;-63
2022/08/04 04:52:53;;;;;;;8.43;2.80;;;23.80;66.10;;;;;;5030956;28;20443;-63
2022/08/04 04:55:27;;;;;;;6.60;2.88;;;23.80;66.10;;;;;;5005762;28;20025;-63
2022/08/04 04:57:57;;;;;;;6.75;3.05;;;23.90;66.30;;;;;;5026545;28;20121;-63
2022/08/04 05:00:53;;;;;;;8.25;3.60;;;23.90;66.30;;;;;;5010890;28;20029;-64
2022/08/04 05:03:43;;;;;;;8.60;3.25;;;23.90;66.30;;;;;;5018104;28;20029;-63
2022/08/04 05:06:36;;;;;;;8.43;3.22;;;23.90;66.40;;;;;;5017220;28;20030;-64
2022/08/04 05:09:22;;;;;;;7.35;3.00;;;24.00;67.10;;;;;;5009989;28;20030;-63
2022/08/04 05:12:09;;;;;;;9.45;3.13;;;24.00;66.30;;;;;;5020460;28;20053;-63
2022/08/04 05:14:43;;;;;;;7.70;2.90;;;24.00;65.90;;;;;;5021184;28;20455;-63
2022/08/04 05:17:33;;;;;;;7.10;2.47;;;24.10;66.60;;;;;;5037997;28;20037;-63
2022/08/04 05:20:09;;;;;;;6.68;2.72;;;24.10;65.70;;;;;;5014591;28;20144;-63
2022/08/04 05:22:51;;;;;;;7.30;2.58;;;24.10;65.70;;;;;;5028865;28;20030;-63
2022/08/04 05:25:36;;;;;;;9.00;2.90;;;24.20;65.60;;;;;;5017788;28;20439;-63
2022/08/04 05:28:11;;;;;;;8.90;2.90;;;24.20;65.60;;;;;;5019594;28;20508;-63
2022/08/04 05:30:47;;;;;;;7.80;3.03;;;24.20;65.50;;;;;;5031774;28;20133;-63
2022/08/04 05:33:15;;;;;;;8.77;3.17;;;24.30;65.30;;;;;;5019512;28;20084;-63
2022/08/04 05:35:54;;;;;;;7.57;3.20;;;24.40;65.10;;;;;;5033408;28;20116;-64
2022/08/04 05:38:25;;;;;;;6.57;2.85;;;24.50;64.90;;;;;;5025519;28;20100;-63
2022/08/04 05:40:51;;;;;;;7.40;2.90;;;24.60;64.80;;;;;;5044481;28;20059;-63
2022/08/04 05:43:18;;;;;;;8.13;3.15;;;24.70;64.60;;;;;;5025223;28;20028;-63
2022/08/04 05:45:47;;;;;;;7.10;3.10;;;24.80;64.40;;;;;;5007772;28;20031;-64
2022/08/04 05:48:13;;;;;;;9.55;3.53;;;24.90;64.40;;;;;;5012577;28;20021;-63
2022/08/04 05:50:39;;;;;;;9.15;3.47;;;24.90;64.40;;;;;;5030258;28;20057;-64
2022/08/04 05:53:06;;;;;;;6.88;3.47;;;25.00;64.30;;;;;;5023938;28;20033;-63
2022/08/04 05:55:33;;;;;;;13.07;3.60;;;25.00;64.40;;;;;;5015851;28;20046;-63
2022/08/04 05:58:00;;;;;;;6.78;3.03;;;25.00;64.70;;;;;;5012896;28;20091;-63
2022/08/04 06:00:27;;;;;;;8.45;3.60;;;25.00;64.80;;;;;;5016257;28;20095;-63
2022/08/04 06:02:55;;;;;;;8.02;3.03;;;25.00;65.00;;;;;;5012533;28;20030;-64
2022/08/04 06:05:22;;;;;;;8.18;3.45;;;25.00;65.10;;;;;;5016512;28;20092;-64
2022/08/04 06:07:48;;;;;;;7.25;3.20;;;25.10;65.30;;;;;;5012212;28;20026;-64
2022/08/04 06:10:15;;;;;;;9.13;3.45;;;25.10;65.40;;;;;;5014254;28;20056;-65
2022/08/04 06:12:55;;;;;;;10.10;3.70;;;25.10;65.50;;;;;;5012847;28;20046;-64
2022/08/04 06:15:25;;;;;;;11.23;3.35;;;25.20;65.80;;;;;;5015889;28;20084;-64
2022/08/04 06:17:55;;;;;;;7.57;3.35;;;25.20;65.70;;;;;;5016708;28;20038;-63
2022/08/04 06:20:25;;;;;;;8.73;3.10;;;25.30;65.70;;;;;;5011761;28;20038;-64
2022/08/04 06:22:57;;;;;;;8.40;3.15;;;25.30;65.70;;;;;;5020304;28;20045;-63
2022/08/04 06:25:28;;;;;;;8.27;3.15;;;25.40;65.80;;;;;;5015162;28;20022;-63
2022/08/04 06:27:54;;;;;;;9.93;3.92;;;25.40;65.80;;;;;;5031380;28;20112;-64
2022/08/04 06:30:25;;;;;;;9.80;3.28;;;25.50;65.90;;;;;;5035948;28;20049;-63
2022/08/04 06:32:59;;;;;;;9.13;3.57;;;25.50;66.10;;;;;;5021821;28;20403;-63
2022/08/04 06:35:27;;;;;;;8.73;3.40;;;25.60;66.10;;;;;;5019300;28;20284;-63
2022/08/04 06:37:55;;;;;;;9.48;3.75;;;25.70;65.80;;;;;;5035404;28;20065;-63
2022/08/04 06:40:22;;;;;;;9.40;3.78;;;25.70;65.60;;;;;;5036580;28;20025;-63
2022/08/04 06:42:49;;;;;;;10.75;3.40;;;25.90;65.60;;;;;;5036682;28;20040;-63
2022/08/04 06:45:17;;;;;;;7.57;3.67;;;26.00;65.20;;;;;;5036533;28;20455;-63
2022/08/04 06:47:43;;;;;;;6.95;3.47;;;26.10;64.90;;;;;;5033925;28;20048;-63
2022/08/04 06:50:10;;;;;;;6.72;3.13;;;26.20;64.60;;;;;;5036718;28;20034;-63
2022/08/04 06:52:36;;;;;;;9.25;3.38;;;26.30;64.20;;;;;;5036565;28;20053;-63
2022/08/04 06:55:03;;;;;;;5.80;2.72;;;26.30;64.10;;;;;;5036460;28;20116;-63
2022/08/04 06:57:31;;;;;;;8.48;3.80;;;26.40;64.00;;;;;;5026407;28;20340;-63
2022/08/04 07:00:03;;;;;;;7.07;3.42;;;26.50;64.10;;;;;;5013675;28;20033;-63
2022/08/04 07:02:37;;;;;;;9.88;2.97;;;26.50;63.50;;;;;;5024924;28;20033;-63
2022/08/04 07:05:05;;;;;;;7.05;3.10;;;26.50;63.10;;;;;;5021030;28;20508;-63
2022/08/04 07:07:31;;;;;;;10.27;3.83;;;26.50;63.00;;;;;;5016112;28;20040;-63
2022/08/04 07:09:57;;;;;;;7.05;3.08;;;26.50;63.10;;;;;;5019659;28;20439;-64
2022/08/04 07:12:23;;;;;;;8.57;3.33;;;26.50;63.10;;;;;;5030828;28;20056;-64
2022/08/04 07:14:50;;;;;;;7.15;3.42;;;26.50;63.00;;;;;;5012644;28;20366;-63
2022/08/04 07:17:19;;;;;;;7.75;3.25;;;26.60;62.60;;;;;;5012764;28;20376;-64
2022/08/04 07:19:45;;;;;;;7.32;3.10;;;26.80;62.00;;;;;;5019373;28;20394;-64
2022/08/04 07:22:11;;;;;;;7.15;2.85;;;27.00;61.20;;;;;;5021568;28;20026;-64
2022/08/04 07:24:37;;;;;;;8.10;3.25;;;27.20;60.60;;;;;;5015351;28;20457;-64
2022/08/04 07:27:05;;;;;;;9.88;3.25;;;27.40;59.80;;;;;;5019507;28;20359;-64
2022/08/04 07:29:32;;;;;;;10.90;3.10;;;27.60;59.10;;;;;;5024895;28;20033;-65
2022/08/04 07:31:58;;;;;;;11.90;3.40;;;27.80;58.60;;;;;;5035556;28;20021;-64
2022/08/04 07:34:25;;;;;;;9.35;2.92;;;28.00;58.10;;;;;;5032163;28;20334;-65
2022/08/04 07:36:54;;;;;;;6.32;2.90;;;28.20;57.80;;;;;;5022045;28;20088;-64
2022/08/04 07:39:22;;;;;;;10.45;2.72;;;28.30;57.60;;;;;;5010906;28;20036;-64
2022/08/04 07:41:49;;;;;;;7.90;3.00;;;28.40;57.30;;;;;;5019939;28;20025;-64
2022/08/04 07:44:15;;;;;;;7.82;3.00;;;28.60;56.70;;;;;;5026090;28;20068;-64
2022/08/04 07:46:43;;;;;;;9.18;2.65;;;28.90;56.30;;;;;;5020178;28;20080;-63
2022/08/04 07:49:10;;;;;;;6.53;2.60;;;29.10;55.70;;;;;;5014850;28;20073;-63
2022/08/04 07:51:36;;;;;;;10.63;2.50;;;29.20;55.20;;;;;;5015541;28;20438;-63
2022/08/04 07:54:04;;;;;;;7.15;3.00;;;29.30;54.80;;;;;;5020884;28;20113;-64
2022/08/04 07:56:31;;;;;;;7.40;3.03;;;29.40;54.30;;;;;;5024221;28;20034;-63
2022/08/04 07:58:58;;;;;;;7.55;2.72;;;29.50;53.80;;;;;;5007796;28;20117;-64
2022/08/04 08:01:24;;;;;;;6.53;2.50;;;29.60;53.50;;;;;;5010209;28;20469;-64
2022/08/04 08:03:52;;;;;;;7.40;2.47;;;29.80;53.00;;;;;;5016326;28;20121;-64
2022/08/04 08:06:18;;;;;;;6.30;2.55;;;29.90;52.50;;;;;;5016366;28;20353;-65
2022/08/04 08:08:44;;;;;;;6.22;2.10;;;30.10;52.00;;;;;;5019821;28;20028;-63
2022/08/04 08:11:10;;;;;;;5.82;2.17;;;30.20;51.70;;;;;;5015271;28;20418;-64
2022/08/04 08:13:36;;;;;;;9.00;2.40;;;30.40;51.70;;;;;;5035320;28;20029;-64
2022/08/04 08:16:02;;;;;;;7.55;2.45;;;30.40;51.50;;;;;;5012848;28;20462;-64
2022/08/04 08:18:29;;;;;;;9.10;2.55;;;30.40;51.40;;;;;;5032034;28;20025;-64
2022/08/04 08:20:57;;;;;;;6.53;2.65;;;30.40;51.20;;;;;;5020396;28;20053;-64
2022/08/04 08:23:24;;;;;;;8.00;2.75;;;30.40;51.20;;;;;;5017892;28;20026;-64
2022/08/04 08:25:52;;;;;;;9.68;2.95;;;30.40;51.30;;;;;;5019047;28;20439;-64
2022/08/04 08:28:18;;;;;;;7.18;2.60;;;30.40;51.20;;;;;;5005748;28;20029;-67
2022/08/04 08:30:43;;;;;;;7.63;2.70;;;30.40;51.10;;;;;;5027983;28;20025;-66
2022/08/04 08:33:13;;;;;;;6.72;2.15;;;30.60;51.10;;;;;;5012805;28;20447;-66
2022/08/04 08:35:47;;;;;;;8.70;2.40;;;30.70;50.90;;;;;;5027780;28;20046;-64
2022/08/04 08:38:16;;;;;;;6.57;2.55;;;30.80;50.60;;;;;;5012679;28;20053;-65
2022/08/04 08:41:07;;;;;;;6.55;2.38;;;30.90;50.50;;;;;;5028076;28;20036;-64
2022/08/04 08:44:01;;;;;;;5.80;2.30;;;31.10;50.00;;;;;;5025852;28;20040;-65
2022/08/04 08:46:41;;;;;;;7.70;2.58;;;31.30;49.80;;;;;;5008086;28;20038;-65
2022/08/04 08:49:29;;;;;;;6.80;2.20;;;31.50;49.20;;;;;;5007645;28;20045;-65
2022/08/04 08:52:00;;;;;;;9.80;2.25;;;31.50;49.10;;;;;;5006177;28;20037;-65
2022/08/04 08:54:53;;;;;;;6.28;2.20;;;31.60;49.10;;;;;;5008676;28;20117;-66
2022/08/04 08:57:45;;;;;;;11.68;2.40;;;31.80;48.80;;;;;;5008531;28;20113;-66
2022/08/04 09:00:36;;;;;;;7.18;2.67;;;32.00;48.80;;;;;;5013587;28;20347;-65
2022/08/04 09:03:26;;;;;;;6.05;2.03;;;32.10;48.50;;;;;;5006037;28;20403;-65
2022/08/04 09:06:23;;;;;;;9.02;2.65;;;32.10;48.60;;;;;;5013299;28;20101;-65
2022/08/04 09:09:02;;;;;;;7.78;2.17;;;32.20;48.50;;;;;;5007291;28;20044;-64
2022/08/04 09:11:42;;;;;;;6.10;2.20;;;32.20;48.60;;;;;;4998931;28;20047;-64
2022/08/04 09:14:15;;;;;;;8.35;2.22;;;32.10;48.80;;;;;;5011336;28;20053;-64
2022/08/04 09:17:01;;;;;;;6.63;2.58;;;31.90;48.80;;;;;;5011629;28;20109;-65
2022/08/04 09:19:36;;;;;;;9.95;2.70;;;31.70;49.00;;;;;;5015838;28;20087;-64
2022/08/04 09:22:13;;;;;;;8.45;3.17;;;31.60;49.10;;;;;;5011663;28;20030;-65
2022/08/04 09:24:58;;;;;;;7.47;2.80;;;31.60;49.20;;;;;;5008738;28;20112;-64
2022/08/04 09:27:30;;;;;;;8.98;2.85;;;31.60;49.20;;;;;;5007135;28;20033;-64
2022/08/04 09:29:58;;;;;;;7.43;2.60;;;31.60;49.30;;;;;;5008208;28;20351;-67
2022/08/04 09:32:46;;;;;;;10.50;2.55;;;31.50;49.60;;;;;;5004111;28;20079;-67
2022/08/04 09:35:39;;;;;;;8.25;2.75;;;31.40;49.80;;;;;;5011870;28;20075;-64
2022/08/04 09:38:20;;;;;;;6.03;2.35;;;31.40;49.90;;;;;;5010462;28;20034;-65
2022/08/04 09:40:57;;;;;;;7.57;2.63;;;31.50;49.70;;;;;;5012157;28;20371;-65
2022/08/04 09:43:48;;;;;;;8.23;2.58;;;31.50;49.70;;;;;;5011876;28;20076;-65
2022/08/04 09:46:32;;;;;;;5.95;2.65;;;31.50;49.70;;;;;;5010195;28;20026;-64
2022/08/04 09:49:30;;;;;;;21.42;16.48;;;31.60;49.80;;;;;;5013430;28;20382;-65
2022/08/04 09:52:38;;;;;;;15.70;8.98;;;31.60;49.70;;;;;;5013509;28;20435;-65
2022/08/04 09:55:27;;;;;;;14.60;8.43;;;31.70;49.60;;;;;;5008926;28;20050;-65
2022/08/04 09:57:53;;;;;;;10.65;5.25;;;31.70;49.70;;;;;;5015052;28;20447;-65
2022/08/04 10:00:19;;;;;;;10.48;4.07;;;31.80;49.70;;;;;;5015016;28;20133;-65
2022/08/04 10:02:56;;;;;;;7.30;3.25;;;31.70;49.60;;;;;;5014592;28;20040;-65
2022/08/04 10:05:25;;;;;;;8.13;2.53;;;31.70;49.80;;;;;;5013599;28;20045;-69
2022/08/04 10:08:32;;;;;;;6.45;2.38;;;31.60;50.00;;;;;;4992573;28;20451;-65
2022/08/04 10:11:13;;;;;;;7.30;2.45;;;31.50;49.90;;;;;;5014267;28;20062;-66
2022/08/04 10:13:44;;;;;;;5.10;2.17;;;31.50;49.70;;;;;;5014468;28;20128;-65
2022/08/04 10:16:43;;;;;;;5.75;2.45;;;31.40;49.50;;;;;;5013932;28;20041;-65
2022/08/04 10:19:52;;;;;;;9.15;2.80;;;31.20;49.60;;;;;;5003205;28;20089;-65
2022/08/04 10:22:24;;;;;;;6.60;2.05;;;31.00;50.10;;;;;;4964724;28;20042;-65
2022/08/04 10:25:13;;;;;;;7.70;2.58;;;30.90;50.50;;;;;;4954869;28;20042;-65
2022/08/04 10:27:50;;;;;;;8.30;2.40;;;30.80;50.60;;;;;;4938474;28;20054;-65
2022/08/04 10:30:18;;;;;;;8.20;2.30;;;30.70;50.40;;;;;;4945783;28;20437;-64
2022/08/04 10:32:57;;;;;;;8.07;2.30;;;30.50;50.40;;;;;;4960363;28;20043;-65
2022/08/04 10:35:26;;;;;;;6.00;2.10;;;30.30;50.50;;;;;;4964989;28;20502;-66
2022/08/04 10:38:10;;;;;;;5.82;2.30;;;30.20;50.60;;;;;;4953255;28;20417;-66
2022/08/04 10:40:46;;;;;;;6.38;2.15;;;30.10;50.70;;;;;;4952429;28;20051;-67
2022/08/04 10:43:30;;;;;;;7.00;2.10;;;29.90;51.00;;;;;;4949695;28;20070;-67
2022/08/04 10:46:02;;;;;;;8.43;2.13;;;29.80;51.30;;;;;;4947886;28;20040;-66
2022/08/04 10:48:38;;;;;;;10.15;2.25;;;29.60;51.60;;;;;;4948556;28;20050;-66
2022/08/04 10:51:41;;;;;;;5.78;2.25;;;29.50;51.80;;;;;;4955690;28;20031;-66
2022/08/04 10:54:10;;;;;;;7.60;2.28;;;29.30;51.90;;;;;;5008730;28;20137;-65
2022/08/04 10:56:48;;;;;;;5.53;1.80;;;29.20;52.40;;;;;;5009551;28;20033;-66
2022/08/04 10:59:18;;;;;;;9.13;2.20;;;29.10;52.90;;;;;;5008399;28;20032;-66
2022/08/04 11:01:47;;;;;;;9.73;2.42;;;28.90;53.30;;;;;;5011099;28;20034;-66
2022/08/04 11:04:40;;;;;;;7.18;2.35;;;28.80;53.90;;;;;;5011348;28;20120;-66
2022/08/04 11:07:07;;;;;;;7.53;2.65;;;28.70;54.60;;;;;;5009050;28;20332;-66
2022/08/04 11:09:33;;;;;;;7.55;2.80;;;28.50;55.40;;;;;;5008210;28;20025;-65
2022/08/04 11:12:20;;;;;;;7.10;2.40;;;28.40;56.30;;;;;;5011684;28;20053;-65
2022/08/04 11:15:09;;;;;;;8.68;2.55;;;28.20;57.50;;;;;;5008743;28;20033;-65
2022/08/04 11:17:39;;;;;;;7.95;2.13;;;28.10;58.30;;;;;;5010108;28;20410;-66
2022/08/04 11:20:25;;;;;;;7.47;2.28;;;27.90;59.20;;;;;;5009633;28;20027;-66
2022/08/04 11:23:04;;;;;;;6.50;2.40;;;27.80;60.30;;;;;;5007002;28;20076;-66
2022/08/04 11:26:01;;;;;;;6.15;2.20;;;27.70;60.90;;;;;;5008366;28;20036;-65
2022/08/04 11:29:00;;;;;;;9.35;3.13;;;27.60;61.90;;;;;;5008691;28;20033;-65
2022/08/04 11:31:30;;;;;;;9.27;2.50;;;27.50;62.50;;;;;;5010274;28;20037;-66
2022/08/04 11:34:03;;;;;;;7.43;2.42;;;27.40;63.00;;;;;;5008833;28;20113;-66
2022/08/04 11:36:37;;;;;;;8.35;2.72;;;27.30;63.80;;;;;;5007052;28;20048;-65
2022/08/04 11:39:22;;;;;;;8.98;2.63;;;27.20;64.70;;;;;;5009146;28;20340;-65
2022/08/04 11:41:59;;;;;;;8.95;2.88;;;27.20;65.40;;;;;;5006574;28;20030;-65
2022/08/04 11:44:33;;;;;;;6.57;2.42;;;27.20;66.20;;;;;;5006176;28;20033;-65
2022/08/04 11:47:08;;;;;;;7.30;2.63;;;27.10;66.60;;;;;;5007970;28;20068;-66
2022/08/04 11:49:43;;;;;;;7.35;2.53;;;27.10;67.20;;;;;;5008094;28;20060;-65
2022/08/04 11:52:12;;;;;;;9.20;2.42;;;27.10;67.40;;;;;;5007972;28;20471;-65
2022/08/04 11:54:40;;;;;;;5.97;2.75;;;27.20;67.50;;;;;;5008679;28;20084;-66
2022/08/04 11:57:07;;;;;;;5.80;2.30;;;27.10;67.20;;;;;;5002364;28;20081;-65
2022/08/04 11:59:35;;;;;;;7.85;2.90;;;27.10;67.40;;;;;;5008511;28;20104;-65
2022/08/04 12:02:06;;;;;;;7.00;2.63;;;27.10;67.30;;;;;;5009417;28;20076;-65
2022/08/04 12:04:57;;;;;;;6.93;2.75;;;27.10;67.20;;;;;;5008071;28;20021;-66
2022/08/04 12:07:47;;;;;;;8.18;2.78;;;27.10;67.00;;;;;;5010663;28;20045;-65
2022/08/04 12:10:27;;;;;;;7.57;2.58;;;27.10;67.00;;;;;;5007049;28;20033;-65
2022/08/04 12:13:05;;;;;;;6.10;2.20;;;27.00;67.00;;;;;;5008661;28;20022;-66
2022/08/04 12:15:55;;;;;;;6.13;2.53;;;27.00;67.20;;;;;;5008826;28;20359;-65
2022/08/04 12:18:33;;;;;;;8.90;2.97;;;26.90;67.40;;;;;;5007396;28;20037;-65
2022/08/04 12:21:16;;;;;;;6.38;2.63;;;26.90;67.60;;;;;;5006186;28;20037;-65
2022/08/04 12:23:43;;;;;;;7.20;2.70;;;26.90;67.80;;;;;;5009316;28;20034;-66
2022/08/04 12:26:16;;;;;;;5.97;2.45;;;26.90;67.90;;;;;;5004602;28;20030;-65
2022/08/04 12:28:45;;;;;;;9.52;2.83;;;26.90;67.80;;;;;;5010705;28;20034;-65
2022/08/04 12:31:44;;;;;;;9.20;2.80;;;26.90;67.60;;;;;;5009006;28;20029;-65
2022/08/04 12:34:24;;;;;;;5.93;2.50;;;27.00;67.60;;;;;;4993865;28;20467;-65
2022/08/04 12:37:02;;;;;;;7.10;2.80;;;27.10;67.60;;;;;;5006902;28;20040;-65
2022/08/04 12:39:30;;;;;;;5.80;2.15;;;27.30;67.60;;;;;;5008589;28;20032;-65
2022/08/04 12:42:12;;;;;;;11.30;3.10;;;27.40;67.50;;;;;;5009058;28;20025;-65
2022/08/04 12:44:41;;;;;;;9.23;2.55;;;27.50;67.10;;;;;;5007689;28;20362;-66
2022/08/04 12:47:11;;;;;;;6.32;2.50;;;27.60;67.30;;;;;;5008146;28;20021;-65
2022/08/04 12:49:41;;;;;;;8.55;2.50;;;27.60;66.80;;;;;;5007591;28;20034;-65
2022/08/04 12:52:13;;;;;;;7.68;2.63;;;27.60;66.40;;;;;;5026570;28;20032;-65
2022/08/04 12:54:42;;;;;;;7.13;2.35;;;27.70;66.30;;;;;;5010374;28;20099;-65
2022/08/04 12:57:10;;;;;;;8.27;3.00;;;27.70;66.30;;;;;;5010642;28;20041;-65
2022/08/04 12:59:42;;;;;;;8.68;3.03;;;27.80;66.10;;;;;;5012900;28;20029;-66
2022/08/04 13:02:25;;;;;;;7.38;2.50;;;27.80;65.80;;;;;;5008976;28;20026;-66
2022/08/04 13:04:53;;;;;;;7.57;3.05;;;27.90;65.80;;;;;;5008510;28;20030;-66
2022/08/04 13:07:22;;;;;;;7.30;2.58;;;27.90;65.60;;;;;;5009340;28;20091;-65
2022/08/04 13:09:50;;;;;;;7.25;2.58;;;27.90;65.40;;;;;;5009908;28;20072;-66
2022/08/04 13:12:24;;;;;;;6.97;2.53;;;28.00;65.30;;;;;;5006268;28;20073;-66
2022/08/04 13:14:57;;;;;;;7.53;2.55;;;28.00;65.10;;;;;;5012191;28;20028;-66
2022/08/04 13:17:24;;;;;;;9.32;2.58;;;28.00;64.70;;;;;;5009647;28;20022;-66
2022/08/04 13:19:51;;;;;;;7.13;2.33;;;28.00;64.70;;;;;;5008588;28;20038;-66
2022/08/04 13:22:26;;;;;;;6.88;2.17;;;27.90;64.40;;;;;;5003926;28;20066;-66
2022/08/04 13:24:52;;;;;;;5.68;2.00;;;28.00;64.00;;;;;;5024268;28;20326;-66
2022/08/04 13:27:19;;;;;;;6.47;2.20;;;28.00;63.70;;;;;;5007398;28;20495;-66
2022/08/04 13:29:47;;;;;;;4.72;1.90;;;28.20;63.00;;;;;;5021692;28;20461;-66
2022/08/04 13:32:19;;;;;;;6.63;2.53;;;28.30;62.50;;;;;;5010055;28;20026;-66
2022/08/04 13:34:47;;;;;;;5.68;2.40;;;28.40;61.80;;;;;;5021871;28;20370;-65